Time;durP1;ratioP1;P1;durP2;ratioP2;P2;SDS_P1;SDS_P2;PMS_P1;PMS_P2;Temp;Humidity;BMP_temperature;BMP_pressure;BME280_temperature;BME280_humidity;BME280_pressure;Samples;Min_cycle;Max_cycle;Signal;HPM_P1;HPM_P2
2023/09/05 00:01:10;;;;;;;4.50;4.15;;;17.10;99.90;;;17.66;69.74;98485.25;10372034;22;20221;-68
2023/09/05 00:06:13;;;;;;;4.65;4.20;;;16.90;99.90;;;17.63;67.85;98479.06;10436438;28;20711;-72
2023/09/05 00:11:17;;;;;;;4.20;3.90;;;16.90;99.90;;;17.67;65.93;98480.94;10430467;28;20232;-69
2023/09/05 00:16:20;;;;;;;4.10;3.75;;;17.00;99.90;;;17.71;65.78;98480.22;10437798;28;20236;-69
2023/09/05 00:21:23;;;;;;;4.32;3.92;;;17.10;99.90;;;17.78;66.05;98466.75;10438054;28;20645;-70
2023/09/05 00:26:28;;;;;;;4.10;3.67;;;17.10;99.90;;;17.85;67.17;98473.91;10441455;28;20221;-70
2023/09/05 00:31:32;;;;;;;4.90;4.30;;;17.10;99.90;;;17.77;72.05;98471.03;10436146;28;20745;-70
2023/09/05 00:36:36;;;;;;;4.63;4.22;;;16.90;99.90;;;17.61;72.77;98473.81;10431808;28;20226;-69
2023/09/05 00:41:40;;;;;;;5.13;4.70;;;16.70;99.90;;;17.44;76.42;98470.56;10438669;28;20621;-69
2023/09/05 00:47:14;;;;;;;4.40;4.03;;;16.50;99.90;;;17.16;73.93;98472.88;10427462;28;20610;-69
2023/09/05 00:52:22;;;;;;;4.07;3.70;;;16.30;99.90;;;17.34;70.44;98468.47;10436565;28;20351;-69
2023/09/05 00:57:27;;;;;;;5.10;4.70;;;16.60;99.90;;;17.31;77.88;98474.38;10435979;28;20233;-68
2023/09/05 01:02:30;;;;;;;4.30;3.90;;;16.30;99.90;;;17.28;69.60;98470.78;10433444;28;20311;-69
2023/09/05 01:07:49;;;;;;;4.10;3.78;;;16.50;99.90;;;17.58;67.13;98462.50;10432887;28;20236;-69
2023/09/05 01:12:53;;;;;;;3.80;3.50;;;17.00;99.90;;;17.72;67.48;98467.38;10429710;28;20237;-69
2023/09/05 01:17:57;;;;;;;3.85;3.55;;;17.10;99.90;;;17.77;66.60;98459.81;10433451;28;20639;-69
2023/09/05 01:23:08;;;;;;;3.70;3.40;;;17.20;99.90;;;18.11;65.20;98464.53;10432489;28;20225;-69
2023/09/05 01:28:13;;;;;;;3.65;3.35;;;17.50;99.90;;;18.01;65.05;98455.56;10431083;28;20323;-69
2023/09/05 01:33:17;;;;;;;3.83;3.47;;;17.40;99.90;;;18.06;64.73;98458.34;10428581;28;20255;-69
2023/09/05 01:38:20;;;;;;;3.78;3.47;;;17.50;99.90;;;18.04;65.66;98459.97;10428182;28;20279;-69
2023/09/05 01:43:25;;;;;;;3.88;3.55;;;17.40;99.90;;;17.88;66.75;98452.47;10427350;28;20265;-69
2023/09/05 01:48:28;;;;;;;3.45;3.25;;;17.20;99.90;;;17.79;66.61;98443.53;10426487;28;20231;-69
2023/09/05 01:53:32;;;;;;;3.97;3.60;;;17.20;99.90;;;17.86;67.39;98443.78;10430622;28;20610;-69
2023/09/05 01:58:36;;;;;;;3.63;3.33;;;17.20;99.90;;;17.69;68.54;98440.53;10429271;28;20249;-69
2023/09/05 02:03:40;;;;;;;3.35;3.05;;;16.90;99.90;;;17.59;69.48;98446.16;10430198;28;20319;-69
2023/09/05 02:08:43;;;;;;;4.05;3.65;;;16.80;99.90;;;17.35;71.11;98439.22;10431844;28;20233;-69
2023/09/05 02:13:47;;;;;;;3.83;3.53;;;16.60;99.90;;;17.12;71.61;98446.03;10429506;28;20344;-69
2023/09/05 02:18:51;;;;;;;4.60;3.33;;;16.30;99.90;;;16.99;73.99;98448.91;10426337;28;20310;-69
2023/09/05 02:23:54;;;;;;;5.38;3.47;;;16.20;99.90;;;16.97;72.81;98446.28;10429420;28;20229;-68
2023/09/05 02:28:59;;;;;;;3.80;3.50;;;16.20;99.90;;;17.05;72.75;98449.16;10428943;28;20306;-68
2023/09/05 02:34:02;;;;;;;3.70;3.30;;;16.30;99.90;;;17.06;73.05;98446.66;10427890;28;20314;-70
2023/09/05 02:39:05;;;;;;;4.60;3.47;;;16.30;99.90;;;17.04;72.87;98444.84;10427801;28;20259;-69
2023/09/05 02:44:10;;;;;;;3.35;3.05;;;16.30;99.90;;;16.98;73.85;98445.47;10427322;28;20239;-69
2023/09/05 02:49:13;;;;;;;3.53;3.28;;;16.20;99.90;;;16.95;74.61;98444.47;10430213;28;20311;-69
2023/09/05 02:54:16;;;;;;;3.83;3.53;;;16.10;99.90;;;16.88;74.73;98443.31;10426669;28;20722;-69
2023/09/05 02:59:21;;;;;;;4.57;3.92;;;16.10;99.90;;;16.84;74.77;98446.59;10428606;28;20225;-68
2023/09/05 03:04:32;;;;;;;4.07;3.67;;;16.10;99.90;;;16.80;75.52;98442.13;10426900;28;20366;-68
2023/09/05 03:09:35;;;;;;;4.47;3.88;;;16.00;99.90;;;16.75;76.25;98452.22;10428848;28;20319;-69
2023/09/05 03:14:40;;;;;;;3.90;3.53;;;15.90;99.90;;;16.63;76.55;98449.13;10429229;28;20585;-69
2023/09/05 03:19:43;;;;;;;5.53;3.65;;;15.80;99.90;;;16.53;78.82;98446.94;10428328;28;20227;-69
2023/09/05 03:24:46;;;;;;;3.75;3.45;;;15.80;99.90;;;16.47;77.86;98442.41;10429364;28;20225;-69
2023/09/05 03:29:51;;;;;;;4.30;3.90;;;15.60;99.90;;;16.30;79.54;98449.41;10426681;28;20229;-69
2023/09/05 03:34:55;;;;;;;4.18;3.75;;;15.50;99.90;;;16.33;79.87;98453.81;10426429;28;20264;-69
2023/09/05 03:39:58;;;;;;;4.22;3.90;;;15.50;99.90;;;16.30;80.52;98445.97;10430026;28;20370;-69
2023/09/05 03:45:04;;;;;;;4.00;3.70;;;15.40;99.90;;;16.18;82.00;98449.75;10426725;28;20235;-68
2023/09/05 03:50:09;;;;;;;3.78;3.53;;;15.30;99.90;;;16.11;81.91;98449.41;10431855;28;20737;-68
2023/09/05 03:55:12;;;;;;;3.90;3.58;;;15.30;99.90;;;15.98;83.06;98446.28;10435472;28;20533;-68
2023/09/05 04:00:17;;;;;;;4.18;3.83;;;15.10;99.90;;;15.91;84.54;98439.09;10435143;28;20665;-68
2023/09/05 04:05:21;;;;;;;4.00;3.70;;;15.10;99.90;;;15.87;84.14;98446.63;10438497;28;20715;-69
2023/09/05 04:10:24;;;;;;;4.25;3.95;;;15.00;99.90;;;15.83;84.60;98439.56;10438580;28;20263;-68
2023/09/05 04:15:29;;;;;;;5.13;4.38;;;15.00;99.90;;;15.77;85.78;98445.31;10438285;28;20746;-69
2023/09/05 04:20:32;;;;;;;4.93;4.53;;;14.90;99.90;;;15.72;85.68;98447.66;10438933;28;20224;-69
2023/09/05 04:25:40;;;;;;;5.13;4.38;;;14.80;99.90;;;15.51;86.60;98437.22;10436031;28;20728;-69
2023/09/05 04:30:44;;;;;;;4.65;4.20;;;14.70;99.90;;;15.52;86.77;98454.44;10437932;28;20326;-67
2023/09/05 04:35:48;;;;;;;4.68;4.28;;;14.70;99.90;;;15.49;86.55;98454.28;10431219;28;20236;-67
2023/09/05 04:40:51;;;;;;;4.78;4.38;;;14.70;99.90;;;15.55;87.21;98458.84;10430742;28;20235;-68
2023/09/05 04:45:57;;;;;;;5.07;4.68;;;14.70;99.90;;;15.47;88.00;98465.34;10432770;28;20252;-67
2023/09/05 04:51:01;;;;;;;4.85;4.43;;;14.60;99.90;;;15.22;89.25;98471.00;10429728;28;20265;-67
2023/09/05 04:56:05;;;;;;;5.60;5.00;;;14.40;99.90;;;15.19;89.57;98474.31;10424232;28;20228;-68
2023/09/05 05:01:09;;;;;;;7.38;4.82;;;14.40;99.90;;;15.23;89.41;98459.91;10425921;28;20837;-68
2023/09/05 05:06:13;;;;;;;5.65;5.18;;;14.50;99.90;;;15.34;89.31;98463.88;10423570;28;20610;-68
2023/09/05 05:11:16;;;;;;;5.10;4.70;;;14.50;99.90;;;15.32;90.03;98466.38;10425054;28;20371;-68
2023/09/05 05:16:20;;;;;;;4.80;4.40;;;14.50;99.90;;;15.41;90.20;98462.47;10425312;28;20374;-67
2023/09/05 05:21:24;;;;;;;4.95;4.55;;;14.60;99.90;;;15.43;90.28;98458.28;10426488;28;20315;-68
2023/09/05 05:26:28;;;;;;;4.97;4.57;;;14.70;99.90;;;15.71;88.22;98456.22;10423413;28;21975;-68
2023/09/05 05:31:33;;;;;;;4.63;4.22;;;14.90;99.90;;;15.93;86.69;98458.06;10423098;28;20235;-68
2023/09/05 05:36:36;;;;;;;5.30;4.30;;;15.20;99.90;;;16.15;86.38;98454.78;10422618;28;20312;-68
2023/09/05 05:41:40;;;;;;;3.88;3.58;;;15.50;99.90;;;16.95;80.98;98455.66;10423063;28;20374;-68
2023/09/05 05:46:44;;;;;;;4.95;4.45;;;16.30;99.90;;;18.00;77.08;98452.94;10436745;28;20318;-68
2023/09/05 05:51:50;;;;;;;4.05;3.72;;;17.10;99.90;;;19.16;72.13;98450.97;10424153;28;20639;-68
2023/09/05 05:56:55;;;;;;;4.80;4.40;;;18.20;99.90;;;19.74;67.85;98445.09;10433322;28;20324;-68
2023/09/05 06:02:00;;;;;;;4.55;3.67;;;18.70;99.90;;;20.43;63.22;98459.16;10427813;28;20348;-68
2023/09/05 06:07:03;;;;;;;4.25;3.85;;;19.40;99.90;;;21.40;60.36;98454.78;10421933;28;20229;-68
2023/09/05 06:12:07;;;;;;;5.30;3.70;;;20.10;99.90;;;21.89;57.51;98453.31;10427508;28;20229;-69
2023/09/05 06:17:12;;;;;;;4.07;3.47;;;20.60;99.90;;;22.05;57.11;98459.72;10426605;28;20275;-68
2023/09/05 06:22:15;;;;;;;3.80;3.50;;;20.60;99.90;;;22.44;56.09;98461.44;10426773;28;20228;-69
2023/09/05 06:27:18;;;;;;;3.45;3.15;;;20.90;99.90;;;22.63;55.22;98454.81;10430205;28;20252;-68
2023/09/05 06:32:24;;;;;;;3.65;3.28;;;21.20;99.90;;;23.61;53.46;98448.69;10440668;28;20315;-68
2023/09/05 06:37:28;;;;;;;3.33;2.75;;;22.10;99.90;;;23.92;51.61;98443.91;10439394;28;20331;-68
2023/09/05 06:42:32;;;;;;;3.53;3.17;;;22.30;99.90;;;24.00;50.95;98450.13;10436992;28;20252;-68
2023/09/05 06:47:36;;;;;;;3.50;3.20;;;22.60;99.30;;;24.83;49.75;98449.38;10437302;28;21853;-68
2023/09/05 06:52:39;;;;;;;3.28;3.00;;;23.30;98.40;;;24.20;49.28;98447.75;10439868;28;20264;-69
2023/09/05 06:57:43;;;;;;;3.40;2.78;;;23.00;97.60;;;24.38;48.66;98447.09;10432459;28;20236;-68
2023/09/05 07:02:47;;;;;;;3.45;3.15;;;23.20;96.60;;;25.09;48.01;98446.97;10426647;28;20249;-68
2023/09/05 07:07:50;;;;;;;3.47;3.00;;;23.70;96.40;;;25.63;45.73;98447.44;10425990;28;20747;-67
2023/09/05 07:12:54;;;;;;;3.42;3.10;;;24.00;95.20;;;26.25;43.37;98444.31;10427106;28;20777;-69
2023/09/05 07:17:58;;;;;;;2.92;2.72;;;24.50;93.70;;;25.88;43.39;98440.63;10428253;28;20301;-67
2023/09/05 07:23:02;;;;;;;2.92;2.70;;;24.00;93.50;;;26.40;42.41;98448.72;10433703;28;20717;-67
2023/09/05 07:28:05;;;;;;;2.80;2.60;;;24.80;92.60;;;26.22;42.67;98460.03;10436668;28;20224;-68
2023/09/05 07:33:10;;;;;;;2.90;2.70;;;25.10;91.80;;;26.08;42.78;98471.31;10439666;28;20700;-67
2023/09/05 07:38:16;;;;;;;4.10;2.80;;;25.30;91.40;;;26.46;41.94;98469.72;10438693;28;20247;-68
2023/09/05 07:43:19;;;;;;;2.90;2.70;;;25.50;90.70;;;26.21;40.82;98473.09;10433307;28;20271;-68
2023/09/05 07:48:23;;;;;;;2.80;2.60;;;25.60;88.70;;;26.43;41.52;98480.19;10431166;28;20278;-67
2023/09/05 07:53:27;;;;;;;2.60;2.40;;;25.70;89.60;;;26.43;41.31;98484.56;10432549;28;20244;-67
2023/09/05 07:58:31;;;;;;;2.60;2.40;;;25.70;88.90;;;26.51;41.13;98486.38;10434755;28;20822;-67
2023/09/05 08:03:36;;;;;;;3.28;2.67;;;25.90;87.80;;;26.50;41.74;98487.25;10430308;28;20611;-67
2023/09/05 08:08:39;;;;;;;2.95;2.67;;;25.70;89.70;;;26.76;40.45;98490.84;10434013;28;20232;-68
2023/09/05 08:13:43;;;;;;;2.65;2.45;;;26.00;87.40;;;26.81;41.27;98492.56;10435177;28;20731;-67
2023/09/05 08:18:47;;;;;;;3.22;2.53;;;26.10;88.20;;;27.04;39.42;98497.00;10434612;28;20225;-67
2023/09/05 08:23:50;;;;;;;2.78;2.50;;;26.50;85.60;;;26.57;40.13;98487.28;10434952;28;20275;-67
2023/09/05 08:28:54;;;;;;;3.78;2.42;;;26.00;86.50;;;26.76;40.42;98483.84;10433894;28;21028;-67
2023/09/05 08:33:58;;;;;;;2.75;2.40;;;26.10;86.20;;;26.33;41.21;98486.28;10437941;28;20837;-68
2023/09/05 08:39:01;;;;;;;2.38;2.28;;;25.90;87.10;;;26.90;40.28;98476.00;10435543;28;20236;-68
2023/09/05 08:44:05;;;;;;;2.83;2.50;;;26.40;85.70;;;26.64;40.86;98463.72;10434240;28;20835;-68
2023/09/05 08:49:10;;;;;;;2.50;2.22;;;26.20;86.30;;;26.55;41.16;98463.66;10432002;28;20729;-67
2023/09/05 08:54:17;;;;;;;2.45;2.25;;;26.10;87.40;;;26.40;40.55;98455.72;10430814;28;20845;-68
2023/09/05 08:59:20;;;;;;;2.40;2.20;;;26.00;85.40;;;25.97;41.97;98453.78;10435080;28;20301;-68
2023/09/05 09:04:26;;;;;;;3.33;2.60;;;25.70;86.70;;;25.81;41.76;98450.19;10433056;28;20671;-68
2023/09/05 09:09:35;;;;;;;2.15;2.05;;;25.50;86.20;;;26.10;42.89;98448.59;10439652;28;20316;-68
2023/09/05 09:14:39;;;;;;;3.10;2.22;;;25.60;88.60;;;26.23;42.00;98440.78;10433412;28;20319;-68
2023/09/05 09:19:43;;;;;;;2.70;2.50;;;25.80;87.50;;;26.11;41.49;98442.50;10431556;28;20771;-68
2023/09/05 09:24:47;;;;;;;2.90;2.70;;;25.80;86.40;;;26.03;42.60;98445.94;10429064;28;20982;-68
2023/09/05 09:29:54;;;;;;;2.70;2.50;;;25.50;87.80;;;26.49;41.46;98456.59;10431420;28;20364;-68
2023/09/05 09:34:58;;;;;;;2.60;2.40;;;26.00;86.80;;;26.19;41.78;98446.03;10433158;28;20234;-68
2023/09/05 09:40:05;;;;;;;2.28;2.08;;;25.80;86.60;;;26.52;41.22;98443.53;10433977;28;20225;-68
2023/09/05 09:45:10;;;;;;;2.53;2.35;;;26.20;85.80;;;26.78;41.70;98439.22;10435302;28;20268;-68
2023/09/05 09:50:17;;;;;;;2.83;2.35;;;26.40;85.80;;;26.43;41.99;98424.25;10437483;28;20228;-69
2023/09/05 09:55:23;;;;;;;2.45;2.25;;;26.00;86.80;;;27.04;41.11;98424.41;10440874;28;20313;-68
2023/09/05 10:00:32;;;;;;;2.72;2.53;;;26.70;85.70;;;26.84;41.87;98423.50;10439675;28;20228;-69
2023/09/05 10:05:41;;;;;;;2.67;2.47;;;26.50;86.60;;;27.20;41.38;98421.81;10435371;28;20242;-68
2023/09/05 10:10:45;;;;;;;2.17;2.00;;;26.80;86.10;;;27.28;40.20;98410.44;10436939;28;20228;-69
2023/09/05 10:15:50;;;;;;;2.08;1.98;;;26.90;84.20;;;27.04;41.54;98423.50;10436564;28;20221;-68
2023/09/05 10:20:58;;;;;;;2.50;2.30;;;26.50;86.50;;;26.78;41.22;98407.75;10429487;28;20251;-68
2023/09/05 10:26:04;;;;;;;2.13;2.03;;;26.30;85.80;;;27.04;41.81;98399.88;10430729;28;20232;-68
2023/09/05 10:31:12;;;;;;;3.35;2.08;;;26.70;86.20;;;27.11;41.81;98388.53;10438009;28;20290;-67
2023/09/05 10:36:46;;;;;;;2.55;2.25;;;26.70;86.80;;;27.13;41.61;98385.03;10431682;28;20612;-67
2023/09/05 10:41:51;;;;;;;2.30;2.10;;;26.90;85.30;;;27.28;41.17;98383.31;10398627;28;20653;-68
2023/09/05 10:46:54;;;;;;;2.42;2.22;;;27.00;85.40;;;27.15;41.81;98371.88;10427483;28;20238;-68
2023/09/05 10:52:20;;;;;;;2.00;1.90;;;26.80;85.90;;;27.40;41.42;98368.38;10428278;28;20232;-68
2023/09/05 10:57:40;;;;;;;2.10;1.90;;;27.00;86.30;;;27.19;42.06;98376.31;10425569;28;20307;-68
2023/09/05 11:02:45;;;;;;;2.22;1.85;;;26.70;86.90;;;26.83;42.52;98379.78;10431808;28;20225;-69
2023/09/05 11:07:55;;;;;;;2.55;2.20;;;26.50;87.20;;;27.21;41.90;98369.28;10431312;28;20239;-68
2023/09/05 11:13:08;;;;;;;2.65;2.42;;;26.70;86.80;;;26.94;42.39;98363.16;10430264;28;20713;-69
2023/09/05 11:18:14;;;;;;;2.13;1.92;;;26.50;86.70;;;27.03;42.19;98353.53;10425325;28;20221;-69
2023/09/05 11:23:21;;;;;;;2.30;2.10;;;26.50;87.00;;;26.99;42.49;98360.53;10426809;28;20697;-69
2023/09/05 11:28:25;;;;;;;2.33;1.95;;;26.50;87.40;;;26.93;42.65;98350.91;10427076;28;20354;-68
2023/09/05 11:33:28;;;;;;;2.17;2.08;;;26.30;88.40;;;27.17;43.02;98343.94;10426900;28;20225;-68
2023/09/05 11:38:46;;;;;;;2.10;2.00;;;26.50;88.80;;;27.31;41.98;98336.91;10428991;28;20309;-69
2023/09/05 11:43:52;;;;;;;2.78;2.28;;;26.70;88.40;;;27.21;42.03;98348.28;10429132;28;20309;-68
2023/09/05 11:48:58;;;;;;;2.17;1.95;;;26.70;87.40;;;27.12;41.83;98338.63;10429059;28;20711;-69
2023/09/05 11:54:06;;;;;;;2.00;1.90;;;26.60;86.20;;;27.21;41.31;98326.41;10426828;28;20313;-69
2023/09/05 11:59:09;;;;;;;2.97;1.80;;;26.80;85.40;;;27.32;41.39;98314.13;10429169;28;20229;-69
2023/09/05 12:04:13;;;;;;;2.33;2.10;;;26.70;85.80;;;27.36;41.89;98324.66;10429462;28;20315;-69
2023/09/05 12:09:18;;;;;;;2.15;2.00;;;26.80;86.80;;;27.28;41.33;98317.66;10431751;28;20235;-69
2023/09/05 12:14:22;;;;;;;1.85;1.70;;;26.70;85.40;;;27.24;42.20;98316.78;10434118;28;20262;-69
2023/09/05 12:19:28;;;;;;;2.33;1.88;;;26.70;87.10;;;27.21;43.32;98315.91;10436424;28;20221;-69
2023/09/05 12:24:33;;;;;;;2.13;1.92;;;26.70;88.40;;;27.28;43.80;98313.28;10430274;28;20316;-69
2023/09/05 12:29:40;;;;;;;2.55;2.35;;;26.80;89.10;;;27.41;43.29;98300.97;10437958;28;20279;-68
2023/09/05 12:34:45;;;;;;;2.00;1.90;;;26.80;89.50;;;27.49;42.06;98299.19;10434682;28;20275;-69
2023/09/05 12:39:55;;;;;;;3.08;2.33;;;26.90;87.80;;;27.50;43.24;98300.06;10434494;28;20220;-68
2023/09/05 12:44:58;;;;;;;2.33;2.10;;;27.00;88.40;;;27.58;43.33;98300.94;10431767;28;20224;-69
2023/09/05 12:50:02;;;;;;;2.15;2.05;;;27.00;89.00;;;27.55;43.56;98285.19;10429077;28;20232;-68
2023/09/05 12:55:16;;;;;;;2.53;2.30;;;26.90;89.80;;;27.63;42.14;98291.28;10432318;28;20718;-68
2023/09/05 13:00:19;;;;;;;2.30;2.10;;;27.00;87.80;;;27.57;42.25;98283.44;10431656;28;20254;-68
2023/09/05 13:05:22;;;;;;;2.65;2.17;;;27.00;87.80;;;27.14;42.20;98270.41;10434285;28;20729;-69
2023/09/05 13:10:27;;;;;;;5.38;2.17;;;26.70;86.60;;;27.24;43.40;98264.28;10437394;28;20224;-68
2023/09/05 13:15:31;;;;;;;2.28;2.08;;;26.70;88.20;;;27.20;43.15;98270.41;10435859;28;20655;-67
2023/09/05 13:20:34;;;;;;;2.10;2.00;;;26.70;87.90;;;27.28;43.50;98268.66;10430733;28;20385;-68
2023/09/05 13:25:39;;;;;;;2.35;2.15;;;26.70;89.00;;;27.23;43.57;98269.53;10434178;28;20232;-67
2023/09/05 13:30:42;;;;;;;2.85;2.42;;;26.70;89.10;;;27.16;44.04;98268.69;10435287;28;20231;-68
2023/09/05 13:35:45;;;;;;;2.83;2.63;;;26.70;89.30;;;27.26;44.35;98259.91;10434055;28;20228;-68
2023/09/05 13:40:50;;;;;;;2.50;2.35;;;26.70;90.00;;;27.26;44.15;98257.28;10431001;28;20258;-68
2023/09/05 13:45:53;;;;;;;2.65;2.38;;;26.70;90.10;;;27.38;45.02;98241.47;10434816;28;20252;-67
2023/09/05 13:50:57;;;;;;;3.40;2.50;;;26.90;90.40;;;27.13;44.38;98232.78;10432823;28;20239;-68
2023/09/05 13:56:02;;;;;;;3.03;2.35;;;26.70;90.00;;;27.28;45.13;98229.28;10432398;28;20228;-67
2023/09/05 14:01:05;;;;;;;2.58;2.38;;;26.70;90.40;;;27.21;44.96;98224.03;10428574;28;20256;-67
2023/09/05 14:06:09;;;;;;;2.80;2.60;;;26.60;90.60;;;27.49;45.07;98224.81;10427098;28;20648;-68
2023/09/05 14:11:13;;;;;;;2.30;2.10;;;26.80;90.80;;;27.32;44.59;98217.88;10427295;28;21072;-68
2023/09/05 14:16:18;;;;;;;2.80;2.50;;;26.80;90.20;;;27.36;44.64;98224.00;10429558;28;20220;-68
2023/09/05 14:21:22;;;;;;;3.70;2.33;;;26.90;90.20;;;27.28;44.92;98223.16;10434284;28;20232;-69
2023/09/05 14:26:29;;;;;;;2.80;2.28;;;26.70;90.50;;;27.07;44.49;98226.66;10428912;28;20319;-69
2023/09/05 14:31:33;;;;;;;2.50;2.30;;;26.60;90.00;;;27.03;44.44;98224.94;10425470;28;20279;-69
2023/09/05 14:36:36;;;;;;;2.33;2.13;;;26.50;89.90;;;27.05;45.36;98212.69;10422692;28;20235;-69
2023/09/05 14:41:41;;;;;;;2.40;2.20;;;26.50;90.50;;;27.04;44.56;98210.94;10432651;28;20247;-69
2023/09/05 14:46:44;;;;;;;2.63;2.42;;;26.60;90.00;;;27.22;45.25;98213.53;10431706;28;20275;-69
2023/09/05 14:51:47;;;;;;;2.40;2.20;;;26.60;91.00;;;27.27;44.66;98213.50;10426525;28;20275;-69
2023/09/05 14:56:52;;;;;;;3.05;2.30;;;26.70;90.40;;;26.99;44.87;98204.84;10422017;28;20220;-68
2023/09/05 15:01:55;;;;;;;2.53;2.33;;;26.60;90.20;;;26.89;45.13;98196.97;10432008;28;20235;-69
2023/09/05 15:07:00;;;;;;;2.40;2.20;;;26.40;90.30;;;26.86;45.26;98194.38;10425696;28;20256;-68
2023/09/05 15:12:06;;;;;;;3.33;2.40;;;26.40;90.30;;;26.86;44.85;98186.50;10424565;28;20253;-70
2023/09/05 15:17:12;;;;;;;2.47;2.08;;;26.30;90.20;;;26.79;45.41;98195.28;10434171;28;20281;-68
2023/09/05 15:22:16;;;;;;;3.05;2.30;;;26.30;90.40;;;26.68;45.35;98191.78;10420599;28;20247;-68
2023/09/05 15:27:20;;;;;;;2.53;2.33;;;26.30;90.40;;;26.67;44.94;98195.28;10417795;22;20872;-69
2023/09/05 15:32:23;;;;;;;2.35;2.15;;;26.10;90.20;;;26.59;45.17;98183.94;10381220;28;20229;-70
2023/09/05 15:37:27;;;;;;;3.05;2.30;;;26.10;90.10;;;26.66;45.05;98183.06;10371706;28;20292;-70
2023/09/05 15:42:32;;;;;;;2.33;2.13;;;26.00;90.30;;;26.56;44.24;98189.19;10345731;28;20771;-70
2023/09/05 15:47:35;;;;;;;2.72;2.53;;;26.00;89.10;;;26.43;44.53;98186.53;10357012;28;20242;-70
2023/09/05 15:52:39;;;;;;;2.40;2.20;;;25.90;90.00;;;26.42;44.63;98190.06;10357462;28;20364;-70
2023/09/05 15:57:43;;;;;;;2.92;2.50;;;25.80;89.70;;;26.39;44.81;98199.66;10355326;28;20226;-70
2023/09/05 16:02:47;;;;;;;2.75;2.55;;;25.80;90.00;;;26.25;44.32;98202.28;10361057;28;20276;-70
2023/09/05 16:07:50;;;;;;;2.92;2.33;;;25.70;88.90;;;26.24;44.43;98201.41;10364783;28;20708;-70
2023/09/05 16:12:55;;;;;;;3.10;2.70;;;25.60;89.50;;;26.12;43.98;98211.00;10364513;28;20254;-71
2023/09/05 16:17:58;;;;;;;3.08;2.80;;;25.60;88.60;;;26.10;44.70;98207.50;10366018;28;20252;-70
2023/09/05 16:23:01;;;;;;;2.65;2.42;;;25.50;89.90;;;26.05;45.07;98215.38;10366807;28;20229;-71
2023/09/05 16:28:06;;;;;;;3.33;3.03;;;25.40;90.20;;;25.96;45.24;98210.13;10362463;28;20284;-71
2023/09/05 16:33:09;;;;;;;2.70;2.50;;;25.30;90.20;;;25.85;45.58;98217.97;10362897;28;20655;-72
2023/09/05 16:38:13;;;;;;;3.85;2.97;;;25.30;90.30;;;25.96;45.13;98216.25;10367300;28;20234;-71
2023/09/05 16:43:17;;;;;;;3.45;2.90;;;25.30;90.30;;;25.89;45.50;98218.84;10364723;28;20321;-72
2023/09/05 16:48:21;;;;;;;3.50;3.20;;;25.10;90.70;;;25.75;46.40;98221.38;10354095;28;20242;-72
2023/09/05 16:53:25;;;;;;;4.78;3.30;;;25.00;91.20;;;25.62;47.38;98236.22;10351650;28;20234;-72
2023/09/05 16:58:31;;;;;;;3.35;3.05;;;24.80;91.60;;;25.52;46.93;98219.56;10331490;28;20396;-72
2023/09/05 17:03:34;;;;;;;3.55;3.20;;;24.70;91.60;;;25.40;47.44;98230.00;10348783;28;20226;-72
2023/09/05 17:08:38;;;;;;;3.55;3.25;;;24.60;91.80;;;25.28;46.40;98235.22;10341351;28;20225;-72
2023/09/05 17:13:42;;;;;;;3.30;3.08;;;24.50;91.00;;;25.22;46.41;98241.28;10353177;28;20230;-72
2023/09/05 17:18:45;;;;;;;3.70;3.25;;;24.40;91.20;;;25.13;46.49;98242.09;10341507;28;20317;-72
2023/09/05 17:23:49;;;;;;;3.53;3.22;;;24.30;91.70;;;25.00;47.50;98250.72;10337351;28;20233;-72
2023/09/05 17:28:54;;;;;;;3.53;3.22;;;24.10;91.90;;;24.90;48.20;98259.38;10334073;28;20883;-73
2023/09/05 17:33:58;;;;;;;3.65;3.22;;;24.00;92.30;;;24.68;48.01;98251.38;10334534;28;20234;-70
2023/09/05 17:39:02;;;;;;;4.10;3.65;;;23.80;92.50;;;24.49;49.69;98252.09;10333994;28;20243;-71
2023/09/05 17:44:07;;;;;;;3.92;3.45;;;23.60;93.30;;;24.31;49.95;98263.25;10333983;28;20233;-71
2023/09/05 17:49:10;;;;;;;3.90;3.60;;;23.40;93.90;;;24.11;51.03;98250.00;10330634;28;20605;-70
2023/09/05 17:54:13;;;;;;;4.35;3.95;;;23.20;94.80;;;23.89;52.21;98254.13;10341231;28;20271;-71
2023/09/05 17:59:19;;;;;;;4.18;3.78;;;22.90;95.80;;;23.68;52.71;98259.97;10343951;28;20234;-70
2023/09/05 18:04:22;;;;;;;3.90;3.60;;;22.70;95.70;;;23.49;53.53;98263.22;10331005;28;20335;-70
2023/09/05 18:09:26;;;;;;;3.65;3.35;;;22.50;96.90;;;23.28;55.06;98269.91;10330056;28;20233;-71
2023/09/05 18:14:31;;;;;;;3.60;3.30;;;22.30;98.00;;;23.02;56.41;98282.59;10338231;28;20289;-71
2023/09/05 18:19:34;;;;;;;3.80;3.38;;;21.90;98.80;;;22.68;58.00;98291.59;10339338;28;20645;-70
2023/09/05 18:24:37;;;;;;;3.50;3.10;;;21.60;99.90;;;22.42;59.18;98299.84;10325641;28;20298;-71
2023/09/05 18:29:42;;;;;;;3.83;3.53;;;21.40;99.90;;;22.17;60.11;98303.75;10330604;28;20240;-72
2023/09/05 18:34:46;;;;;;;4.28;3.88;;;21.10;99.90;;;21.94;61.08;98300.69;10327929;28;20440;-71
2023/09/05 18:39:50;;;;;;;5.32;3.65;;;20.90;99.90;;;21.79;62.76;98295.19;10327114;28;20241;-70
2023/09/05 18:44:55;;;;;;;3.70;3.40;;;20.70;99.90;;;21.59;63.63;98307.81;10321691;28;20222;-71
2023/09/05 18:49:59;;;;;;;3.58;3.28;;;20.50;99.90;;;21.39;65.37;98314.31;10329580;28;20713;-71
2023/09/05 18:55:02;;;;;;;4.20;3.90;;;20.40;99.90;;;21.12;67.19;98316.31;10324632;28;20353;-71
2023/09/05 19:00:10;;;;;;;4.60;4.20;;;20.10;99.90;;;20.94;68.45;98321.06;10322717;28;20235;-71
2023/09/05 19:05:18;;;;;;;4.18;3.88;;;19.90;99.90;;;20.82;69.94;98325.97;10331463;28;20307;-71
2023/09/05 19:10:22;;;;;;;4.68;4.05;;;19.80;99.90;;;20.50;71.98;98331.22;10337413;28;20237;-72
2023/09/05 19:15:28;;;;;;;4.57;3.92;;;19.50;99.90;;;20.46;71.48;98342.41;10325292;28;20261;-72
2023/09/05 19:20:32;;;;;;;4.45;3.78;;;19.40;99.90;;;20.30;72.21;98343.69;10328895;28;20229;-70
2023/09/05 19:25:37;;;;;;;5.65;3.97;;;19.30;99.90;;;20.14;73.60;98345.00;10327930;28;20636;-71
2023/09/05 19:30:42;;;;;;;5.65;4.05;;;19.10;99.90;;;19.94;75.06;98336.66;10340329;28;20379;-71
2023/09/05 19:35:49;;;;;;;4.20;3.70;;;18.90;99.90;;;19.77;75.53;98333.63;10325558;28;20310;-70
2023/09/05 19:40:52;;;;;;;4.30;3.90;;;18.70;99.90;;;19.60;76.57;98334.78;10327648;28;20605;-72
2023/09/05 19:45:58;;;;;;;4.30;4.00;;;18.60;99.90;;;19.45;77.59;98336.94;10324997;28;20684;-72
2023/09/05 19:51:02;;;;;;;4.40;4.00;;;18.40;99.90;;;19.22;78.06;98329.34;10342710;28;20772;-72
2023/09/05 19:56:05;;;;;;;3.85;3.55;;;18.30;99.90;;;19.23;78.33;98331.13;10343012;28;20235;-71
2023/09/05 20:01:10;;;;;;;4.32;4.03;;;18.20;99.90;;;19.04;79.44;98327.09;10349470;28;20242;-70
2023/09/05 20:06:13;;;;;;;4.68;3.70;;;18.00;99.90;;;18.97;80.33;98340.69;10333690;28;20287;-71
2023/09/05 20:11:16;;;;;;;5.07;4.07;;;18.00;99.90;;;18.83;81.09;98335.06;10326066;28;20226;-71
2023/09/05 20:16:21;;;;;;;4.70;4.30;;;17.80;99.90;;;18.62;82.12;98327.44;10331196;28;20754;-71
2023/09/05 20:21:24;;;;;;;4.60;4.20;;;17.60;99.90;;;18.57;83.09;98320.34;10338031;28;20615;-72
2023/09/05 20:26:28;;;;;;;4.85;4.07;;;17.60;99.90;;;18.52;83.21;98324.50;10331777;28;20237;-71
2023/09/05 20:31:33;;;;;;;5.22;4.32;;;17.50;99.90;;;18.48;83.60;98332.97;10342887;28;20784;-71
2023/09/05 20:36:36;;;;;;;4.68;4.28;;;17.50;99.90;;;18.26;84.52;98327.09;10344816;28;20235;-71
2023/09/05 20:41:39;;;;;;;4.78;4.20;;;17.30;99.90;;;18.20;85.27;98332.94;10349327;28;20229;-71
2023/09/05 20:46:44;;;;;;;5.07;4.28;;;17.10;99.90;;;18.00;85.77;98336.53;10355524;28;20234;-71
2023/09/05 20:51:47;;;;;;;5.38;4.40;;;17.00;99.90;;;17.96;86.29;98334.66;10354817;28;20709;-71
2023/09/05 20:56:51;;;;;;;4.90;4.40;;;16.90;99.90;;;17.84;86.69;98342.84;10341430;28;20236;-71
2023/09/05 21:01:55;;;;;;;5.18;4.68;;;16.80;99.90;;;17.70;86.96;98341.44;10340960;28;20227;-71
2023/09/05 21:06:58;;;;;;;4.80;4.22;;;16.70;99.90;;;17.64;87.81;98348.97;10343579;28;20254;-71